sensor_id;sensor_type;location;lat;lon;timestamp;P1;durP1;ratioP1;P2;durP2;ratioP2
72060;SDS011;59925;52.136;5.420;2022-11-23T00:01:32;14.80;;;5.78;;
72060;SDS011;59925;52.136;5.420;2022-11-23T00:04:02;13.02;;;5.90;;
72060;SDS011;59925;52.136;5.420;2022-11-23T00:06:30;13.00;;;6.97;;
72060;SDS011;59925;52.136;5.420;2022-11-23T00:08:58;14.63;;;7.53;;
72060;SDS011;59925;52.136;5.420;2022-11-23T00:11:25;16.23;;;7.25;;
72060;SDS011;59925;52.136;5.420;2022-11-23T00:13:52;11.90;;;6.70;;
72060;SDS011;59925;52.136;5.420;2022-11-23T00:16:21;17.00;;;8.70;;
72060;SDS011;59925;52.136;5.420;2022-11-23T00:18:51;15.43;;;7.63;;
72060;SDS011;59925;52.136;5.420;2022-11-23T00:21:19;16.60;;;8.03;;
72060;SDS011;59925;52.136;5.420;2022-11-23T00:23:49;16.45;;;8.15;;
72060;SDS011;59925;52.136;5.420;2022-11-23T00:26:16;13.60;;;8.07;;
72060;SDS011;59925;52.136;5.420;2022-11-23T00:28:43;14.23;;;8.20;;
72060;SDS011;59925;52.136;5.420;2022-11-23T00:31:14;13.18;;;7.10;;
72060;SDS011;59925;52.136;5.420;2022-11-23T00:33:42;20.17;;;8.87;;
72060;SDS011;59925;52.136;5.420;2022-11-23T00:36:14;17.65;;;8.23;;
72060;SDS011;59925;52.136;5.420;2022-11-23T00:38:41;14.27;;;8.15;;
72060;SDS011;59925;52.136;5.420;2022-11-23T00:41:10;16.90;;;8.73;;
72060;SDS011;59925;52.136;5.420;2022-11-23T00:43:38;15.80;;;9.38;;
72060;SDS011;59925;52.136;5.420;2022-11-23T00:46:09;19.07;;;8.60;;
72060;SDS011;59925;52.136;5.420;2022-11-23T00:48:42;18.92;;;9.23;;
72060;SDS011;59925;52.136;5.420;2022-11-23T00:51:12;17.42;;;8.77;;
72060;SDS011;59925;52.136;5.420;2022-11-23T00:53:41;20.15;;;9.55;;
72060;SDS011;59925;52.136;5.420;2022-11-23T00:56:08;17.80;;;8.73;;
72060;SDS011;59925;52.136;5.420;2022-11-23T00:58:35;16.03;;;8.80;;
72060;SDS011;59925;52.136;5.420;2022-11-23T01:01:08;20.17;;;10.30;;
72060;SDS011;59925;52.136;5.420;2022-11-23T01:03:38;21.55;;;10.73;;
72060;SDS011;59925;52.136;5.420;2022-11-23T01:06:07;18.15;;;10.15;;
72060;SDS011;59925;52.136;5.420;2022-11-23T01:08:39;16.17;;;9.27;;
72060;SDS011;59925;52.136;5.420;2022-11-23T01:11:06;24.40;;;9.50;;
72060;SDS011;59925;52.136;5.420;2022-11-23T01:13:36;19.42;;;9.63;;
72060;SDS011;59925;52.136;5.420;2022-11-23T01:16:04;18.38;;;10.10;;
72060;SDS011;59925;52.136;5.420;2022-11-23T01:18:32;20.98;;;9.93;;
72060;SDS011;59925;52.136;5.420;2022-11-23T01:20:59;19.80;;;9.80;;
72060;SDS011;59925;52.136;5.420;2022-11-23T02:33:41;9.90;;;4.70;;
72060;SDS011;59925;52.136;5.420;2022-11-23T02:36:26;9.00;;;4.90;;
72060;SDS011;59925;52.136;5.420;2022-11-23T02:38:57;12.13;;;5.30;;
72060;SDS011;59925;52.136;5.420;2022-11-23T02:41:26;13.73;;;4.55;;
72060;SDS011;59925;52.136;5.420;2022-11-23T02:43:53;14.27;;;4.88;;
72060;SDS011;59925;52.136;5.420;2022-11-23T02:46:21;13.30;;;5.00;;
72060;SDS011;59925;52.136;5.420;2022-11-23T02:49:02;11.50;;;5.47;;
72060;SDS011;59925;52.136;5.420;2022-11-23T02:51:28;12.93;;;5.60;;
72060;SDS011;59925;52.136;5.420;2022-11-23T02:53:54;12.82;;;6.22;;
72060;SDS011;59925;52.136;5.420;2022-11-23T02:56:21;13.20;;;5.68;;
72060;SDS011;59925;52.136;5.420;2022-11-23T02:58:47;16.02;;;5.38;;
72060;SDS011;59925;52.136;5.420;2022-11-23T03:01:13;13.40;;;5.87;;
72060;SDS011;59925;52.136;5.420;2022-11-23T03:03:40;13.50;;;6.10;;
72060;SDS011;59925;52.136;5.420;2022-11-23T03:06:07;13.25;;;6.68;;
72060;SDS011;59925;52.136;5.420;2022-11-23T03:08:33;10.68;;;5.55;;
72060;SDS011;59925;52.136;5.420;2022-11-23T03:11:00;11.38;;;6.35;;
72060;SDS011;59925;52.136;5.420;2022-11-23T03:13:27;11.60;;;5.60;;
72060;SDS011;59925;52.136;5.420;2022-11-23T03:15:54;13.57;;;5.53;;
72060;SDS011;59925;52.136;5.420;2022-11-23T03:18:22;11.13;;;4.80;;
72060;SDS011;59925;52.136;5.420;2022-11-23T03:20:48;10.98;;;4.50;;
72060;SDS011;59925;52.136;5.420;2022-11-23T03:23:15;10.30;;;4.60;;
72060;SDS011;59925;52.136;5.420;2022-11-23T03:25:41;9.43;;;4.93;;
72060;SDS011;59925;52.136;5.420;2022-11-23T03:28:08;12.00;;;5.03;;
72060;SDS011;59925;52.136;5.420;2022-11-23T03:30:34;10.00;;;4.57;;
72060;SDS011;59925;52.136;5.420;2022-11-23T03:33:00;13.80;;;4.75;;
72060;SDS011;59925;52.136;5.420;2022-11-23T03:35:27;11.40;;;5.38;;
72060;SDS011;59925;52.136;5.420;2022-11-23T03:37:53;9.57;;;4.97;;
72060;SDS011;59925;52.136;5.420;2022-11-23T03:40:20;7.43;;;4.32;;
72060;SDS011;59925;52.136;5.420;2022-11-23T03:42:46;11.23;;;4.30;;
72060;SDS011;59925;52.136;5.420;2022-11-23T03:45:12;10.93;;;4.90;;
72060;SDS011;59925;52.136;5.420;2022-11-23T03:47:39;11.40;;;4.78;;
72060;SDS011;59925;52.136;5.420;2022-11-23T03:50:05;8.60;;;4.33;;
72060;SDS011;59925;52.136;5.420;2022-11-23T03:52:32;8.63;;;4.53;;
72060;SDS011;59925;52.136;5.420;2022-11-23T03:54:58;7.25;;;4.32;;
72060;SDS011;59925;52.136;5.420;2022-11-23T03:57:25;14.05;;;4.72;;
72060;SDS011;59925;52.136;5.420;2022-11-23T03:59:51;12.40;;;4.55;;
72060;SDS011;59925;52.136;5.420;2022-11-23T04:02:17;9.47;;;4.27;;
72060;SDS011;59925;52.136;5.420;2022-11-23T04:04:44;9.70;;;4.65;;
72060;SDS011;59925;52.136;5.420;2022-11-23T04:07:10;12.15;;;4.38;;
72060;SDS011;59925;52.136;5.420;2022-11-23T04:09:37;9.77;;;3.42;;
72060;SDS011;59925;52.136;5.420;2022-11-23T04:12:03;9.90;;;3.80;;
72060;SDS011;59925;52.136;5.420;2022-11-23T04:14:30;11.97;;;3.93;;
72060;SDS011;59925;52.136;5.420;2022-11-23T04:16:56;8.48;;;3.75;;
72060;SDS011;59925;52.136;5.420;2022-11-23T04:19:23;6.55;;;3.38;;
72060;SDS011;59925;52.136;5.420;2022-11-23T04:21:49;9.30;;;3.63;;
72060;SDS011;59925;52.136;5.420;2022-11-23T04:24:15;9.88;;;3.60;;
72060;SDS011;59925;52.136;5.420;2022-11-23T04:26:42;8.73;;;3.70;;
72060;SDS011;59925;52.136;5.420;2022-11-23T04:29:08;8.73;;;4.03;;
72060;SDS011;59925;52.136;5.420;2022-11-23T04:31:34;9.93;;;3.60;;
72060;SDS011;59925;52.136;5.420;2022-11-23T04:34:01;8.90;;;3.90;;
72060;SDS011;59925;52.136;5.420;2022-11-23T04:36:27;5.72;;;3.30;;
72060;SDS011;59925;52.136;5.420;2022-11-23T04:38:54;9.47;;;3.17;;
72060;SDS011;59925;52.136;5.420;2022-11-23T04:41:21;6.32;;;3.13;;
72060;SDS011;59925;52.136;5.420;2022-11-23T04:43:48;8.73;;;3.25;;
72060;SDS011;59925;52.136;5.420;2022-11-23T04:46:14;7.75;;;3.10;;
72060;SDS011;59925;52.136;5.420;2022-11-23T04:48:40;9.52;;;3.83;;
72060;SDS011;59925;52.136;5.420;2022-11-23T04:51:07;9.73;;;3.77;;
72060;SDS011;59925;52.136;5.420;2022-11-23T04:53:33;8.82;;;3.40;;
72060;SDS011;59925;52.136;5.420;2022-11-23T04:56:00;7.72;;;3.90;;
72060;SDS011;59925;52.136;5.420;2022-11-23T04:58:26;7.05;;;3.10;;
72060;SDS011;59925;52.136;5.420;2022-11-23T05:00:59;10.45;;;3.50;;
72060;SDS011;59925;52.136;5.420;2022-11-23T05:03:25;10.03;;;2.93;;
72060;SDS011;59925;52.136;5.420;2022-11-23T05:05:52;8.85;;;2.97;;
72060;SDS011;59925;52.136;5.420;2022-11-23T05:08:19;9.30;;;2.72;;
72060;SDS011;59925;52.136;5.420;2022-11-23T05:10:45;10.32;;;3.92;;
72060;SDS011;59925;52.136;5.420;2022-11-23T05:13:11;10.98;;;3.58;;
72060;SDS011;59925;52.136;5.420;2022-11-23T05:15:38;7.93;;;3.30;;
72060;SDS011;59925;52.136;5.420;2022-11-23T05:18:04;10.32;;;3.10;;
72060;SDS011;59925;52.136;5.420;2022-11-23T05:20:33;10.80;;;3.10;;
72060;SDS011;59925;52.136;5.420;2022-11-23T05:22:59;8.93;;;2.97;;
72060;SDS011;59925;52.136;5.420;2022-11-23T05:25:26;8.57;;;3.05;;
72060;SDS011;59925;52.136;5.420;2022-11-23T05:27:52;11.60;;;3.30;;
72060;SDS011;59925;52.136;5.420;2022-11-23T05:30:18;10.18;;;2.80;;
72060;SDS011;59925;52.136;5.420;2022-11-23T05:32:45;10.65;;;3.05;;
72060;SDS011;59925;52.136;5.420;2022-11-23T05:35:12;8.38;;;3.20;;
72060;SDS011;59925;52.136;5.420;2022-11-23T05:37:39;11.93;;;3.30;;
72060;SDS011;59925;52.136;5.420;2022-11-23T05:40:06;11.37;;;3.07;;
72060;SDS011;59925;52.136;5.420;2022-11-23T05:42:34;5.75;;;3.15;;
72060;SDS011;59925;52.136;5.420;2022-11-23T05:45:00;9.15;;;3.38;;
72060;SDS011;59925;52.136;5.420;2022-11-23T05:47:26;7.53;;;2.58;;
72060;SDS011;59925;52.136;5.420;2022-11-23T05:49:53;7.55;;;2.42;;
72060;SDS011;59925;52.136;5.420;2022-11-23T05:52:19;9.63;;;2.80;;
72060;SDS011;59925;52.136;5.420;2022-11-23T05:54:46;8.70;;;2.60;;
72060;SDS011;59925;52.136;5.420;2022-11-23T05:57:12;9.48;;;2.83;;
72060;SDS011;59925;52.136;5.420;2022-11-23T05:59:40;6.47;;;2.40;;
72060;SDS011;59925;52.136;5.420;2022-11-23T06:02:07;9.48;;;2.53;;
72060;SDS011;59925;52.136;5.420;2022-11-23T06:04:33;7.77;;;2.87;;
72060;SDS011;59925;52.136;5.420;2022-11-23T06:07:00;9.23;;;2.88;;
72060;SDS011;59925;52.136;5.420;2022-11-23T06:09:26;9.95;;;2.90;;
72060;SDS011;59925;52.136;5.420;2022-11-23T06:11:53;8.80;;;2.78;;
72060;SDS011;59925;52.136;5.420;2022-11-23T06:14:20;8.27;;;2.75;;
72060;SDS011;59925;52.136;5.420;2022-11-23T06:16:46;9.37;;;3.10;;
72060;SDS011;59925;52.136;5.420;2022-11-23T06:19:13;10.43;;;2.97;;
72060;SDS011;59925;52.136;5.420;2022-11-23T06:21:39;13.95;;;2.70;;
72060;SDS011;59925;52.136;5.420;2022-11-23T06:24:09;7.95;;;2.47;;
72060;SDS011;59925;52.136;5.420;2022-11-23T06:26:36;7.00;;;2.50;;
72060;SDS011;59925;52.136;5.420;2022-11-23T06:29:02;8.53;;;3.00;;
72060;SDS011;59925;52.136;5.420;2022-11-23T06:31:28;8.43;;;2.60;;
72060;SDS011;59925;52.136;5.420;2022-11-23T06:33:55;10.15;;;2.72;;
72060;SDS011;59925;52.136;5.420;2022-11-23T06:36:21;8.48;;;2.20;;
72060;SDS011;59925;52.136;5.420;2022-11-23T06:38:48;6.80;;;1.73;;
72060;SDS011;59925;52.136;5.420;2022-11-23T06:41:14;6.60;;;2.03;;
72060;SDS011;59925;52.136;5.420;2022-11-23T06:43:41;7.07;;;2.28;;
72060;SDS011;59925;52.136;5.420;2022-11-23T06:46:07;8.25;;;2.05;;
72060;SDS011;59925;52.136;5.420;2022-11-23T06:48:35;7.53;;;1.83;;
72060;SDS011;59925;52.136;5.420;2022-11-23T06:51:01;7.95;;;1.95;;
72060;SDS011;59925;52.136;5.420;2022-11-23T06:53:28;7.50;;;2.03;;
72060;SDS011;59925;52.136;5.420;2022-11-23T06:55:58;7.28;;;1.63;;
72060;SDS011;59925;52.136;5.420;2022-11-23T06:58:25;9.98;;;1.45;;
72060;SDS011;59925;52.136;5.420;2022-11-23T07:00:52;5.50;;;1.55;;
72060;SDS011;59925;52.136;5.420;2022-11-23T07:03:19;8.30;;;2.17;;
72060;SDS011;59925;52.136;5.420;2022-11-23T07:05:48;13.47;;;2.03;;
72060;SDS011;59925;52.136;5.420;2022-11-23T07:08:14;10.82;;;2.42;;
72060;SDS011;59925;52.136;5.420;2022-11-23T07:10:41;19.65;;;2.60;;
72060;SDS011;59925;52.136;5.420;2022-11-23T07:13:08;7.10;;;1.80;;
72060;SDS011;59925;52.136;5.420;2022-11-23T07:15:35;9.75;;;2.03;;
72060;SDS011;59925;52.136;5.420;2022-11-23T07:18:02;7.43;;;1.67;;
72060;SDS011;59925;52.136;5.420;2022-11-23T07:20:30;7.57;;;1.50;;
72060;SDS011;59925;52.136;5.420;2022-11-23T07:23:03;9.20;;;1.33;;
72060;SDS011;59925;52.136;5.420;2022-11-23T07:25:31;7.78;;;1.50;;
72060;SDS011;59925;52.136;5.420;2022-11-23T07:28:00;8.68;;;2.33;;
72060;SDS011;59925;52.136;5.420;2022-11-23T07:30:28;11.63;;;1.53;;
72060;SDS011;59925;52.136;5.420;2022-11-23T07:32:59;7.75;;;1.00;;
72060;SDS011;59925;52.136;5.420;2022-11-23T07:35:26;6.15;;;0.95;;
72060;SDS011;59925;52.136;5.420;2022-11-23T07:37:53;7.90;;;0.88;;
72060;SDS011;59925;52.136;5.420;2022-11-23T07:40:19;6.65;;;1.50;;
72060;SDS011;59925;52.136;5.420;2022-11-23T07:42:46;11.47;;;1.20;;
72060;SDS011;59925;52.136;5.420;2022-11-23T07:45:12;6.25;;;0.82;;
72060;SDS011;59925;52.136;5.420;2022-11-23T07:47:39;13.55;;;1.80;;
72060;SDS011;59925;52.136;5.420;2022-11-23T07:50:05;10.38;;;1.50;;
72060;SDS011;59925;52.136;5.420;2022-11-23T07:52:34;10.93;;;1.75;;
72060;SDS011;59925;52.136;5.420;2022-11-23T07:55:01;5.97;;;1.07;;
72060;SDS011;59925;52.136;5.420;2022-11-23T07:57:27;7.88;;;0.98;;
72060;SDS011;59925;52.136;5.420;2022-11-23T07:59:54;15.38;;;1.80;;
72060;SDS011;59925;52.136;5.420;2022-11-23T08:02:20;10.48;;;1.35;;
72060;SDS011;59925;52.136;5.420;2022-11-23T08:04:47;4.38;;;0.85;;
72060;SDS011;59925;52.136;5.420;2022-11-23T08:07:13;3.77;;;0.73;;
72060;SDS011;59925;52.136;5.420;2022-11-23T08:09:40;12.65;;;1.33;;
72060;SDS011;59925;52.136;5.420;2022-11-23T08:12:06;6.57;;;1.00;;
72060;SDS011;59925;52.136;5.420;2022-11-23T08:14:33;7.65;;;0.85;;
72060;SDS011;59925;52.136;5.420;2022-11-23T08:17:00;13.23;;;1.70;;
72060;SDS011;59925;52.136;5.420;2022-11-23T08:19:26;9.27;;;0.90;;
72060;SDS011;59925;52.136;5.420;2022-11-23T08:21:53;11.15;;;1.05;;
72060;SDS011;59925;52.136;5.420;2022-11-23T08:24:19;7.60;;;1.13;;
72060;SDS011;59925;52.136;5.420;2022-11-23T08:26:45;12.25;;;1.40;;
72060;SDS011;59925;52.136;5.420;2022-11-23T08:29:12;9.13;;;1.20;;
72060;SDS011;59925;52.136;5.420;2022-11-23T08:31:38;12.93;;;1.10;;
72060;SDS011;59925;52.136;5.420;2022-11-23T08:34:04;8.18;;;1.00;;
72060;SDS011;59925;52.136;5.420;2022-11-23T08:36:31;6.30;;;1.02;;
72060;SDS011;59925;52.136;5.420;2022-11-23T08:38:57;8.82;;;1.20;;
72060;SDS011;59925;52.136;5.420;2022-11-23T08:41:23;12.38;;;1.05;;
72060;SDS011;59925;52.136;5.420;2022-11-23T08:43:50;9.27;;;1.20;;
72060;SDS011;59925;52.136;5.420;2022-11-23T08:46:16;9.48;;;0.95;;
72060;SDS011;59925;52.136;5.420;2022-11-23T08:48:43;8.73;;;1.20;;
72060;SDS011;59925;52.136;5.420;2022-11-23T08:51:09;11.30;;;1.00;;
72060;SDS011;59925;52.136;5.420;2022-11-23T08:53:36;5.38;;;0.68;;
72060;SDS011;59925;52.136;5.420;2022-11-23T08:56:03;8.47;;;1.03;;
72060;SDS011;59925;52.136;5.420;2022-11-23T08:58:32;9.00;;;1.20;;
72060;SDS011;59925;52.136;5.420;2022-11-23T09:00:59;11.93;;;1.23;;
72060;SDS011;59925;52.136;5.420;2022-11-23T09:03:25;10.70;;;1.05;;
72060;SDS011;59925;52.136;5.420;2022-11-23T09:05:52;9.55;;;1.20;;
72060;SDS011;59925;52.136;5.420;2022-11-23T09:08:19;10.40;;;1.20;;
72060;SDS011;59925;52.136;5.420;2022-11-23T09:10:46;9.18;;;1.10;;
72060;SDS011;59925;52.136;5.420;2022-11-23T09:13:12;7.68;;;1.10;;
72060;SDS011;59925;52.136;5.420;2022-11-23T09:15:39;12.82;;;1.17;;
72060;SDS011;59925;52.136;5.420;2022-11-23T09:18:05;13.40;;;1.30;;
72060;SDS011;59925;52.136;5.420;2022-11-23T09:20:31;8.13;;;1.07;;
72060;SDS011;59925;52.136;5.420;2022-11-23T09:22:58;9.88;;;0.70;;
72060;SDS011;59925;52.136;5.420;2022-11-23T09:25:24;7.32;;;1.35;;
72060;SDS011;59925;52.136;5.420;2022-11-23T09:27:57;9.20;;;1.50;;
72060;SDS011;59925;52.136;5.420;2022-11-23T09:30:26;7.15;;;1.08;;
72060;SDS011;59925;52.136;5.420;2022-11-23T09:32:56;9.17;;;0.97;;
72060;SDS011;59925;52.136;5.420;2022-11-23T09:35:23;11.45;;;1.40;;
72060;SDS011;59925;52.136;5.420;2022-11-23T09:37:56;12.73;;;1.15;;
72060;SDS011;59925;52.136;5.420;2022-11-23T09:40:24;9.18;;;1.17;;
72060;SDS011;59925;52.136;5.420;2022-11-23T09:42:58;9.38;;;1.13;;
72060;SDS011;59925;52.136;5.420;2022-11-23T09:45:46;10.77;;;1.70;;
72060;SDS011;59925;52.136;5.420;2022-11-23T09:48:20;8.27;;;1.38;;
72060;SDS011;59925;52.136;5.420;2022-11-23T09:51:00;9.68;;;1.20;;
72060;SDS011;59925;52.136;5.420;2022-11-23T09:56:20;10.63;;;1.38;;
72060;SDS011;59925;52.136;5.420;2022-11-23T09:58:52;7.73;;;0.93;;
72060;SDS011;59925;52.136;5.420;2022-11-23T10:01:21;8.73;;;1.15;;
72060;SDS011;59925;52.136;5.420;2022-11-23T10:03:47;4.50;;;0.70;;
72060;SDS011;59925;52.136;5.420;2022-11-23T10:06:24;6.18;;;1.17;;
72060;SDS011;59925;52.136;5.420;2022-11-23T10:11:44;6.03;;;1.10;;
72060;SDS011;59925;52.136;5.420;2022-11-23T10:16:52;11.70;;;1.73;;
72060;SDS011;59925;52.136;5.420;2022-11-23T10:22:25;10.77;;;1.40;;
72060;SDS011;59925;52.136;5.420;2022-11-23T10:24:53;10.93;;;1.23;;
72060;SDS011;59925;52.136;5.420;2022-11-23T10:27:20;10.68;;;0.95;;
72060;SDS011;59925;52.136;5.420;2022-11-23T10:29:49;5.60;;;1.02;;
72060;SDS011;59925;52.136;5.420;2022-11-23T10:32:37;7.28;;;1.00;;
72060;SDS011;59925;52.136;5.420;2022-11-23T10:35:29;8.25;;;0.93;;
72060;SDS011;59925;52.136;5.420;2022-11-23T10:38:11;8.97;;;1.43;;
72060;SDS011;59925;52.136;5.420;2022-11-23T10:40:58;7.70;;;0.88;;
72060;SDS011;59925;52.136;5.420;2022-11-23T10:48:49;11.38;;;1.48;;
72060;SDS011;59925;52.136;5.420;2022-11-23T10:51:25;7.63;;;0.90;;
72060;SDS011;59925;52.136;5.420;2022-11-23T10:53:56;6.50;;;1.08;;
72060;SDS011;59925;52.136;5.420;2022-11-23T10:56:30;9.32;;;1.42;;
72060;SDS011;59925;52.136;5.420;2022-11-23T10:58:58;8.38;;;1.10;;
72060;SDS011;59925;52.136;5.420;2022-11-23T11:01:25;9.93;;;1.30;;
72060;SDS011;59925;52.136;5.420;2022-11-23T11:03:55;12.37;;;1.60;;
72060;SDS011;59925;52.136;5.420;2022-11-23T11:06:29;7.53;;;1.20;;
72060;SDS011;59925;52.136;5.420;2022-11-23T11:09:02;7.13;;;0.98;;
72060;SDS011;59925;52.136;5.420;2022-11-23T11:11:37;11.05;;;1.25;;
72060;SDS011;59925;52.136;5.420;2022-11-23T11:14:08;9.50;;;1.25;;
72060;SDS011;59925;52.136;5.420;2022-11-23T11:16:46;11.50;;;1.33;;
72060;SDS011;59925;52.136;5.420;2022-11-23T11:19:27;8.80;;;1.27;;
72060;SDS011;59925;52.136;5.420;2022-11-23T11:21:58;8.95;;;1.02;;
72060;SDS011;59925;52.136;5.420;2022-11-23T11:24:45;8.05;;;1.08;;
72060;SDS011;59925;52.136;5.420;2022-11-23T11:27:13;7.18;;;1.00;;
72060;SDS011;59925;52.136;5.420;2022-11-23T11:37:37;6.68;;;1.23;;
72060;SDS011;59925;52.136;5.420;2022-11-23T11:43:03;5.90;;;1.47;;
72060;SDS011;59925;52.136;5.420;2022-11-23T11:45:44;10.57;;;1.30;;
72060;SDS011;59925;52.136;5.420;2022-11-23T11:51:12;6.97;;;1.20;;
72060;SDS011;59925;52.136;5.420;2022-11-23T11:53:44;4.45;;;0.93;;
72060;SDS011;59925;52.136;5.420;2022-11-23T11:56:17;6.90;;;1.07;;
72060;SDS011;59925;52.136;5.420;2022-11-23T11:58:54;9.63;;;1.30;;
72060;SDS011;59925;52.136;5.420;2022-11-23T12:01:34;11.70;;;0.90;;
72060;SDS011;59925;52.136;5.420;2022-11-23T12:04:04;3.90;;;0.80;;
72060;SDS011;59925;52.136;5.420;2022-11-23T12:06:43;4.85;;;0.80;;
72060;SDS011;59925;52.136;5.420;2022-11-23T12:09:24;9.03;;;1.53;;
72060;SDS011;59925;52.136;5.420;2022-11-23T12:11:57;5.47;;;0.68;;
72060;SDS011;59925;52.136;5.420;2022-11-23T12:14:23;5.10;;;1.00;;
72060;SDS011;59925;52.136;5.420;2022-11-23T12:25:35;5.22;;;0.70;;
72060;SDS011;59925;52.136;5.420;2022-11-23T12:39:04;7.72;;;1.45;;
72060;SDS011;59925;52.136;5.420;2022-11-23T12:50:13;3.60;;;0.57;;
72060;SDS011;59925;52.136;5.420;2022-11-23T12:53:01;6.80;;;0.98;;
72060;SDS011;59925;52.136;5.420;2022-11-23T12:55:50;2.53;;;0.57;;
72060;SDS011;59925;52.136;5.420;2022-11-23T12:58:28;4.55;;;0.60;;
72060;SDS011;59925;52.136;5.420;2022-11-23T13:01:00;4.82;;;0.80;;
72060;SDS011;59925;52.136;5.420;2022-11-23T13:15:04;3.55;;;0.60;;
72060;SDS011;59925;52.136;5.420;2022-11-23T13:23:36;5.65;;;0.77;;
72060;SDS011;59925;52.136;5.420;2022-11-23T13:26:11;7.13;;;0.80;;
72060;SDS011;59925;52.136;5.420;2022-11-23T13:28:40;5.30;;;0.70;;
72060;SDS011;59925;52.136;5.420;2022-11-23T13:31:16;4.40;;;0.70;;
72060;SDS011;59925;52.136;5.420;2022-11-23T13:33:46;4.05;;;0.60;;
72060;SDS011;59925;52.136;5.420;2022-11-23T13:36:36;6.40;;;0.68;;
72060;SDS011;59925;52.136;5.420;2022-11-23T13:42:10;3.67;;;1.30;;
72060;SDS011;59925;52.136;5.420;2022-11-23T13:44:37;4.60;;;0.70;;
72060;SDS011;59925;52.136;5.420;2022-11-23T13:47:05;5.28;;;0.80;;
72060;SDS011;59925;52.136;5.420;2022-11-23T13:57:21;5.03;;;0.60;;
72060;SDS011;59925;52.136;5.420;2022-11-23T13:59:47;4.03;;;0.60;;
72060;SDS011;59925;52.136;5.420;2022-11-23T14:02:24;4.10;;;0.65;;
72060;SDS011;59925;52.136;5.420;2022-11-23T14:07:56;5.28;;;0.88;;
72060;SDS011;59925;52.136;5.420;2022-11-23T14:10:25;4.07;;;0.60;;
72060;SDS011;59925;52.136;5.420;2022-11-23T14:15:34;4.47;;;0.80;;
72060;SDS011;59925;52.136;5.420;2022-11-23T14:20:50;2.40;;;0.60;;
72060;SDS011;59925;52.136;5.420;2022-11-23T14:23:26;2.80;;;0.70;;
72060;SDS011;59925;52.136;5.420;2022-11-23T14:26:10;2.63;;;0.55;;
72060;SDS011;59925;52.136;5.420;2022-11-23T14:28:49;4.97;;;0.65;;
72060;SDS011;59925;52.136;5.420;2022-11-23T14:34:18;5.97;;;0.50;;
72060;SDS011;59925;52.136;5.420;2022-11-23T14:43:14;3.97;;;0.60;;
72060;SDS011;59925;52.136;5.420;2022-11-23T14:45:44;5.13;;;0.50;;
72060;SDS011;59925;52.136;5.420;2022-11-23T14:48:19;7.00;;;0.90;;
72060;SDS011;59925;52.136;5.420;2022-11-23T14:51:10;4.77;;;0.60;;
72060;SDS011;59925;52.136;5.420;2022-11-23T14:53:42;1.90;;;0.60;;
72060;SDS011;59925;52.136;5.420;2022-11-23T14:56:56;7.07;;;0.70;;
72060;SDS011;59925;52.136;5.420;2022-11-23T15:01:46;4.03;;;0.70;;
72060;SDS011;59925;52.136;5.420;2022-11-23T15:04:24;3.57;;;0.50;;
72060;SDS011;59925;52.136;5.420;2022-11-23T15:07:02;4.95;;;0.80;;
72060;SDS011;59925;52.136;5.420;2022-11-23T15:12:05;5.80;;;0.70;;
72060;SDS011;59925;52.136;5.420;2022-11-23T15:14:51;3.58;;;0.85;;
72060;SDS011;59925;52.136;5.420;2022-11-23T15:17:20;4.63;;;0.70;;
72060;SDS011;59925;52.136;5.420;2022-11-23T15:19:57;3.90;;;0.50;;
72060;SDS011;59925;52.136;5.420;2022-11-23T15:22:25;4.57;;;0.90;;
72060;SDS011;59925;52.136;5.420;2022-11-23T15:24:53;2.65;;;0.55;;
72060;SDS011;59925;52.136;5.420;2022-11-23T15:27:30;5.55;;;1.00;;
72060;SDS011;59925;52.136;5.420;2022-11-23T15:29:58;3.57;;;0.50;;
72060;SDS011;59925;52.136;5.420;2022-11-23T15:32:29;3.55;;;0.68;;
72060;SDS011;59925;52.136;5.420;2022-11-23T15:35:01;3.95;;;0.90;;
72060;SDS011;59925;52.136;5.420;2022-11-23T15:37:41;5.78;;;0.93;;
72060;SDS011;59925;52.136;5.420;2022-11-23T15:40:11;4.93;;;0.65;;
72060;SDS011;59925;52.136;5.420;2022-11-23T15:42:38;2.10;;;0.70;;
72060;SDS011;59925;52.136;5.420;2022-11-23T15:45:31;3.38;;;0.80;;
72060;SDS011;59925;52.136;5.420;2022-11-23T15:48:04;3.88;;;0.88;;
72060;SDS011;59925;52.136;5.420;2022-11-23T15:50:43;4.32;;;0.63;;
72060;SDS011;59925;52.136;5.420;2022-11-23T15:53:11;3.78;;;0.68;;
72060;SDS011;59925;52.136;5.420;2022-11-23T15:55:38;4.43;;;0.77;;
72060;SDS011;59925;52.136;5.420;2022-11-23T15:58:05;7.45;;;1.10;;
72060;SDS011;59925;52.136;5.420;2022-11-23T16:00:34;4.43;;;0.85;;
72060;SDS011;59925;52.136;5.420;2022-11-23T16:08:53;4.70;;;1.33;;
72060;SDS011;59925;52.136;5.420;2022-11-23T16:14:11;3.80;;;1.00;;
72060;SDS011;59925;52.136;5.420;2022-11-23T16:16:40;2.40;;;0.80;;
72060;SDS011;59925;52.136;5.420;2022-11-23T16:19:27;4.65;;;1.00;;
72060;SDS011;59925;52.136;5.420;2022-11-23T16:21:57;5.17;;;0.90;;
72060;SDS011;59925;52.136;5.420;2022-11-23T16:24:28;5.45;;;1.15;;
72060;SDS011;59925;52.136;5.420;2022-11-23T16:26:57;5.13;;;1.10;;
72060;SDS011;59925;52.136;5.420;2022-11-23T16:29:25;6.03;;;0.80;;
72060;SDS011;59925;52.136;5.420;2022-11-23T16:32:03;3.33;;;1.08;;
72060;SDS011;59925;52.136;5.420;2022-11-23T16:34:32;4.40;;;1.30;;
72060;SDS011;59925;52.136;5.420;2022-11-23T16:37:00;5.18;;;1.60;;
72060;SDS011;59925;52.136;5.420;2022-11-23T16:39:28;6.35;;;1.30;;
72060;SDS011;59925;52.136;5.420;2022-11-23T16:41:55;5.80;;;1.42;;
72060;SDS011;59925;52.136;5.420;2022-11-23T16:44:21;5.85;;;1.55;;
72060;SDS011;59925;52.136;5.420;2022-11-23T16:46:47;3.17;;;1.53;;
72060;SDS011;59925;52.136;5.420;2022-11-23T16:49:18;7.72;;;1.40;;
72060;SDS011;59925;52.136;5.420;2022-11-23T16:51:46;7.65;;;1.55;;
72060;SDS011;59925;52.136;5.420;2022-11-23T16:54:22;5.13;;;1.90;;
72060;SDS011;59925;52.136;5.420;2022-11-23T16:56:50;4.68;;;1.80;;
72060;SDS011;59925;52.136;5.420;2022-11-23T16:59:17;3.83;;;1.90;;
72060;SDS011;59925;52.136;5.420;2022-11-23T17:01:45;6.88;;;2.10;;
72060;SDS011;59925;52.136;5.420;2022-11-23T17:04:19;6.13;;;2.92;;
72060;SDS011;59925;52.136;5.420;2022-11-23T17:06:45;4.97;;;2.15;;
72060;SDS011;59925;52.136;5.420;2022-11-23T17:09:12;5.63;;;2.20;;
72060;SDS011;59925;52.136;5.420;2022-11-23T17:11:41;4.13;;;2.60;;
72060;SDS011;59925;52.136;5.420;2022-11-23T17:14:12;3.72;;;2.33;;
72060;SDS011;59925;52.136;5.420;2022-11-23T17:16:44;3.67;;;2.17;;
72060;SDS011;59925;52.136;5.420;2022-11-23T17:19:15;5.53;;;2.33;;
72060;SDS011;59925;52.136;5.420;2022-11-23T17:21:43;6.85;;;2.67;;
72060;SDS011;59925;52.136;5.420;2022-11-23T17:24:10;6.10;;;2.40;;
72060;SDS011;59925;52.136;5.420;2022-11-23T17:26:39;7.70;;;2.88;;
72060;SDS011;59925;52.136;5.420;2022-11-23T17:29:14;7.93;;;3.38;;
72060;SDS011;59925;52.136;5.420;2022-11-23T17:31:47;6.50;;;2.97;;
72060;SDS011;59925;52.136;5.420;2022-11-23T17:34:15;5.88;;;3.58;;
72060;SDS011;59925;52.136;5.420;2022-11-23T17:36:42;5.43;;;2.93;;
72060;SDS011;59925;52.136;5.420;2022-11-23T17:39:21;5.75;;;3.33;;
72060;SDS011;59925;52.136;5.420;2022-11-23T17:41:49;5.80;;;3.30;;
72060;SDS011;59925;52.136;5.420;2022-11-23T17:44:16;5.75;;;2.92;;
72060;SDS011;59925;52.136;5.420;2022-11-23T17:46:43;7.97;;;3.05;;
72060;SDS011;59925;52.136;5.420;2022-11-23T17:49:11;7.80;;;3.20;;
72060;SDS011;59925;52.136;5.420;2022-11-23T17:51:39;8.15;;;3.70;;
72060;SDS011;59925;52.136;5.420;2022-11-23T17:54:06;7.07;;;3.75;;
72060;SDS011;59925;52.136;5.420;2022-11-23T17:56:32;6.68;;;4.03;;
72060;SDS011;59925;52.136;5.420;2022-11-23T17:58:59;6.72;;;3.53;;
72060;SDS011;59925;52.136;5.420;2022-11-23T18:01:25;4.97;;;3.23;;
72060;SDS011;59925;52.136;5.420;2022-11-23T18:03:52;6.03;;;3.30;;
72060;SDS011;59925;52.136;5.420;2022-11-23T18:06:19;6.13;;;3.88;;